Search for airport 
image banner adimage banner adimage banner ad
image banner ad

CN49 - Sutter Roseville Medical Center

Located in Roseville, United States

ICAO - CN49, IATA -

Data provided by Airmate  

General information

Coordinates: N38°46'1" W121°14'53"
Elevation is 286 feet MSL.
Magnetic variation is 15° East
View others Airports in California

Operational data

Special qualification required
Current time UTC:
Current local time:
Weather at : KMCC - Mc Clellan Airfield ( 17 km )
METAR: KMCC 210955Z AUTO 14010KT 10SM CLR 19/10 A2980 RMK AO2
TAF: KMCC 210520Z 2106/2206 18006G12KT P6SM SKC FM212200 22015G21KT P6SM SKC
View NOTAMs / SUP AIP / TFR affecting this airport [VIEW]
Communications frequencies: [VIEW]

Runways:

Airport contact information

Address: Roseville United States

Satellite view of CN49